Time;durP1;ratioP1;P1;durP2;ratioP2;P2;SDS_P1;SDS_P2;PMS_P1;PMS_P2;Temp;Humidity;BMP_temperature;BMP_pressure;BME280_temperature;BME280_humidity;BME280_pressure;Samples;Min_cycle;Max_cycle;Signal;HPM_P1;HPM_P2
2023/12/28 00:01:34;;;;;;;;;;;;;;;26.37;36.97;94508.72;4964348;28;7924;-54
2023/12/28 00:04:04;;;;;;;;;;;;;;;26.35;37.54;94503.72;4965581;28;9092;-55
2023/12/28 00:06:39;;;;;;;;;;;;;;;26.35;37.42;94489.19;4948573;29;9758;-55
2023/12/28 00:09:22;;;;;;;;;;;;;;;26.35;37.08;94495.47;4950702;28;9356;-55
2023/12/28 00:11:48;;;;;;;;;;;;;;;26.36;37.28;94496.94;4952628;28;7167;-55
2023/12/28 00:14:31;;;;;;;;;;;;;;;26.35;37.08;94489.19;4960601;28;8778;-55
2023/12/28 00:17:18;;;;;;;;;;;;;;;26.36;37.34;94485.19;4951988;28;7065;-55
2023/12/28 00:20:00;;;;;;;;;;;;;;;26.35;37.66;94483.69;4946190;29;9003;-55
2023/12/28 00:22:55;;;;;;;;;;;;;;;26.35;37.54;94491.94;4944027;28;6994;-55
2023/12/28 00:25:22;;;;;;;;;;;;;;;26.33;37.47;94491.72;4901147;29;9704;-55
2023/12/28 00:27:49;;;;;;;;;;;;;;;26.34;37.57;94507.00;4909721;29;7199;-55
2023/12/28 00:30:26;;;;;;;;;;;;;;;26.34;37.40;94513.25;4911324;29;8726;-55
2023/12/28 00:33:11;;;;;;;;;;;;;;;26.34;37.34;94515.28;4903941;29;7321;-55
2023/12/28 00:35:48;;;;;;;;;;;;;;;26.33;37.53;94505.50;4924325;29;10062;-55
2023/12/28 00:38:23;;;;;;;;;;;;;;;26.34;37.29;94520.78;4926997;29;7323;-55
2023/12/28 00:41:05;;;;;;;;;;;;;;;26.32;37.31;94512.28;4910514;29;7151;-36
2023/12/28 00:43:42;;;;;;;;;;;;;;;26.32;37.47;94515.06;4893394;29;7085;-36
2023/12/28 00:46:39;;;;;;;;;;;;;;;26.34;37.50;94531.81;4915411;29;7055;-36
2023/12/28 00:49:24;;;;;;;;;;;;;;;26.34;36.87;94520.78;4917266;29;8801;-36
2023/12/28 00:52:04;;;;;;;;;;;;;;;26.33;37.18;94533.84;4912776;29;9011;-36
2023/12/28 00:54:40;;;;;;;;;;;;;;;26.31;36.99;94539.13;4902228;29;7079;-36
2023/12/28 00:57:06;;;;;;;;;;;;;;;26.31;37.55;94533.59;4893477;29;7194;-36
2023/12/28 00:59:42;;;;;;;;;;;;;;;26.30;37.04;94532.09;4899365;29;9209;-36
2023/12/28 01:02:22;;;;;;;;;;;;;;;26.33;37.49;94546.88;4961707;28;9281;-36
2023/12/28 01:05:28;;;;;;;;;;;;;;;26.32;37.10;94548.13;4999183;28;7241;-36
2023/12/28 01:08:28;;;;;;;;;;;;;;;26.32;36.87;94546.09;4942622;28;9419;-36
2023/12/28 01:10:54;;;;;;;;;;;;;;;26.33;36.78;94531.06;4860751;29;6984;-36
2023/12/28 01:13:31;;;;;;;;;;;;;;;26.33;37.24;94533.06;4859084;29;7285;-36
2023/12/28 01:16:12;;;;;;;;;;;;;;;26.30;37.10;94534.84;4854112;29;7708;-36
2023/12/28 01:18:43;;;;;;;;;;;;;;;26.31;37.36;94538.34;4846208;29;8668;-36
2023/12/28 01:21:18;;;;;;;;;;;;;;;26.32;37.29;94537.09;4842945;29;6983;-36
2023/12/28 01:24:00;;;;;;;;;;;;;;;26.32;37.15;94548.88;4858765;29;7299;-36
2023/12/28 01:26:28;;;;;;;;;;;;;;;26.31;37.42;94555.66;4840282;29;9126;-36
2023/12/28 01:29:20;;;;;;;;;;;;;;;26.32;37.19;94557.13;4860211;29;8723;-36
2023/12/28 01:31:46;;;;;;;;;;;;;;;26.27;36.59;94560.69;4845522;29;9063;-36
2023/12/28 01:34:23;;;;;;;;;;;;;;;26.30;37.34;94556.91;4856185;29;7304;-36
2023/12/28 01:37:01;;;;;;;;;;;;;;;26.27;36.64;94557.94;4857734;29;9083;-36
2023/12/28 01:39:39;;;;;;;;;;;;;;;26.27;37.47;94566.22;4852213;29;7626;-36
2023/12/28 01:42:16;;;;;;;;;;;;;;;26.24;37.46;94572.75;4885392;29;8733;-36
2023/12/28 01:44:44;;;;;;;;;;;;;;;26.26;37.04;94574.97;4926580;29;9424;-36
2023/12/28 01:47:12;;;;;;;;;;;;;;;26.25;36.77;94574.25;4988828;28;7450;-36
2023/12/28 01:49:45;;;;;;;;;;;;;;;26.26;37.13;94572.97;5006819;28;9087;-35
2023/12/28 01:52:11;;;;;;;;;;;;;;;26.24;36.84;94572.75;5013937;28;9092;-35
2023/12/28 01:55:08;;;;;;;;;;;;;;;26.26;37.07;94578.50;5013877;28;7062;-35
2023/12/28 01:57:37;;;;;;;;;;;;;;;26.24;36.89;94571.97;4956974;28;7052;-35
2023/12/28 02:01:01;;;;;;;;;;;;;;;26.27;37.11;94591.03;4958256;28;7095;-35
2023/12/28 02:03:29;;;;;;;;;;;;;;;26.25;37.50;94593.56;4954918;28;9082;-35
2023/12/28 02:05:55;;;;;;;;;;;;;;;26.24;36.75;94594.81;4963565;28;7282;-35
2023/12/28 02:08:31;;;;;;;;;;;;;;;26.24;36.92;94583.78;4947328;28;8288;-35
2023/12/28 02:11:00;;;;;;;;;;;;;;;26.23;37.00;94617.38;4947367;28;9020;-35
2023/12/28 02:13:26;;;;;;;;;;;;;;;26.25;37.15;94604.59;4949465;28;9061;-35
2023/12/28 02:16:01;;;;;;;;;;;;;;;26.25;37.67;94606.59;4950725;28;9067;-35
2023/12/28 02:18:37;;;;;;;;;;;;;;;26.25;36.88;94610.09;4966548;28;6985;-35
2023/12/28 02:21:09;;;;;;;;;;;;;;;26.25;36.91;94610.09;4952926;28;7003;-35
2023/12/28 02:23:35;;;;;;;;;;;;;;;26.26;36.71;94606.06;4953296;28;7327;-35
2023/12/28 02:26:03;;;;;;;;;;;;;;;26.26;36.42;94608.06;4944138;28;9161;-35
2023/12/28 02:28:29;;;;;;;;;;;;;;;26.24;37.09;94597.56;4941734;28;7300;-35
2023/12/28 02:30:55;;;;;;;;;;;;;;;26.26;37.04;94597.03;4956038;28;6972;-35
2023/12/28 02:33:35;;;;;;;;;;;;;;;26.28;37.33;94589.00;4964944;28;6904;-35
2023/12/28 02:36:09;;;;;;;;;;;;;;;26.23;36.81;94587.78;5003635;28;7287;-35
2023/12/28 02:38:40;;;;;;;;;;;;;;;26.25;36.69;94603.81;5001079;28;7077;-35
2023/12/28 02:41:08;;;;;;;;;;;;;;;26.24;37.31;94603.06;5007958;28;8740;-35
2023/12/28 02:43:34;;;;;;;;;;;;;;;26.25;37.42;94593.56;5021164;28;8982;-35
2023/12/28 02:46:01;;;;;;;;;;;;;;;26.26;36.75;94597.78;5025001;28;7184;-35
2023/12/28 02:48:27;;;;;;;;;;;;;;;26.25;37.21;94593.56;5009924;28;7256;-35
2023/12/28 02:50:53;;;;;;;;;;;;;;;26.23;37.17;94582.25;5022781;28;8896;-35
2023/12/28 02:53:29;;;;;;;;;;;;;;;26.25;36.90;94582.53;5002776;28;7231;-35
2023/12/28 02:56:01;;;;;;;;;;;;;;;26.24;36.65;94577.50;5011211;28;9186;-35
2023/12/28 02:58:27;;;;;;;;;;;;;;;26.23;36.86;94581.53;5005119;28;9358;-35
2023/12/28 03:00:53;;;;;;;;;;;;;;;26.21;37.26;94584.06;4995062;28;9048;-52
2023/12/28 03:03:35;;;;;;;;;;;;;;;26.21;37.33;94584.06;5024809;28;7209;-51
2023/12/28 03:06:16;;;;;;;;;;;;;;;26.21;37.08;94586.81;5029655;28;9298;-51
2023/12/28 03:08:49;;;;;;;;;;;;;;;26.21;36.90;94590.28;5015274;28;7071;-50
2023/12/28 03:11:28;;;;;;;;;;;;;;;26.22;36.38;94578.03;5012018;28;6848;-49
2023/12/28 03:13:55;;;;;;;;;;;;;;;26.21;36.86;94586.81;5023290;28;7562;-47
2023/12/28 03:16:34;;;;;;;;;;;;;;;26.23;36.84;94581.53;4997228;28;9394;-48
2023/12/28 03:19:07;;;;;;;;;;;;;;;26.21;36.96;94581.28;4993921;28;9373;-50
2023/12/28 03:21:43;;;;;;;;;;;;;;;26.19;36.66;94576.28;4994644;28;7249;-50
2023/12/28 03:24:28;;;;;;;;;;;;;;;26.21;36.65;94568.22;5009585;28;7555;-47
2023/12/28 03:27:21;;;;;;;;;;;;;;;26.20;36.64;94574.28;5006619;28;9001;-50
2023/12/28 03:30:06;;;;;;;;;;;;;;;26.20;36.63;94566.00;4987680;28;7264;-49
2023/12/28 03:32:32;;;;;;;;;;;;;;;26.17;36.76;94571.28;4975644;28;7255;-49
2023/12/28 03:35:17;;;;;;;;;;;;;;;26.16;36.95;94563.53;4973236;28;7146;-47
2023/12/28 03:38:12;;;;;;;;;;;;;;;26.18;36.80;94566.53;4985248;28;7533;-48
2023/12/28 03:41:16;;;;;;;;;;;;;;;26.15;36.63;94564.78;4970748;28;7234;-50
2023/12/28 03:43:54;;;;;;;;;;;;;;;26.14;36.74;94560.53;4960788;28;7460;-51
2023/12/28 03:46:28;;;;;;;;;;;;;;;26.13;36.49;94562.53;4941794;29;7213;-50
2023/12/28 03:49:03;;;;;;;;;;;;;;;26.14;37.01;94564.00;4934627;29;7211;-48
2023/12/28 03:51:42;;;;;;;;;;;;;;;26.14;36.38;94561.25;4953128;29;7018;-49
2023/12/28 03:54:40;;;;;;;;;;;;;;;26.19;37.10;94567.28;4943724;29;8304;-49
2023/12/28 03:57:20;;;;;;;;;;;;;;;26.19;36.60;94576.28;4861852;29;7276;-49
2023/12/28 04:00:13;;;;;;;;;;;;;;;26.18;36.30;94580.31;4874011;29;7270;-47
2023/12/28 04:02:40;;;;;;;;;;;;;;;26.15;36.85;94573.78;4872375;29;9184;-47
2023/12/28 04:05:15;;;;;;;;;;;;;;;26.15;36.56;94573.03;4862445;29;7713;-51
2023/12/28 04:07:52;;;;;;;;;;;;;;;26.16;36.83;94566.28;4889116;29;7059;-51
2023/12/28 04:10:55;;;;;;;;;;;;;;;26.16;36.30;94571.78;4895518;29;6873;-35
2023/12/28 04:13:24;;;;;;;;;;;;;;;26.14;36.54;94571.56;4870647;29;8755;-35
2023/12/28 04:16:05;;;;;;;;;;;;;;;26.15;36.37;94573.78;4879664;29;7224;-35
2023/12/28 04:18:58;;;;;;;;;;;;;;;26.17;36.80;94574.03;4882143;29;9420;-35
2023/12/28 04:21:26;;;;;;;;;;;;;;;26.13;36.88;94575.56;4930014;28;6989;-35
2023/12/28 04:24:09;;;;;;;;;;;;;;;26.13;36.85;94576.31;4934130;28;7062;-35
2023/12/28 04:26:36;;;;;;;;;;;;;;;26.15;36.31;94581.31;4939633;28;7281;-35
2023/12/28 04:29:12;;;;;;;;;;;;;;;26.13;36.62;94572.81;4937655;28;9096;-35
2023/12/28 04:31:42;;;;;;;;;;;;;;;26.12;36.73;94580.31;4958687;28;7219;-35
2023/12/28 04:34:30;;;;;;;;;;;;;;;26.11;36.73;94591.88;5030856;28;9320;-35
2023/12/28 04:37:05;;;;;;;;;;;;;;;26.11;36.97;94584.34;5029052;28;9111;-35
2023/12/28 04:39:47;;;;;;;;;;;;;;;26.14;36.94;94591.59;5033087;28;8975;-35
2023/12/28 04:42:22;;;;;;;;;;;;;;;26.10;36.51;94582.84;5016097;28;9387;-35
2023/12/28 04:45:09;;;;;;;;;;;;;;;26.11;36.84;94580.84;5030825;28;7092;-35
2023/12/28 04:48:03;;;;;;;;;;;;;;;26.10;36.34;94580.09;5006668;28;8563;-35
2023/12/28 04:50:39;;;;;;;;;;;;;;;26.08;36.58;94571.56;4948418;28;9931;-35
2023/12/28 04:53:20;;;;;;;;;;;;;;;26.10;36.93;94565.53;4936411;29;9270;-35
2023/12/28 04:55:46;;;;;;;;;;;;;;;26.08;36.58;94570.78;4937306;29;9071;-35
2023/12/28 04:58:45;;;;;;;;;;;;;;;26.09;37.05;94567.56;4917202;29;7440;-35
2023/12/28 05:01:21;;;;;;;;;;;;;;;26.09;36.35;94553.78;4882165;29;7346;-35
2023/12/28 05:03:54;;;;;;;;;;;;;;;26.10;36.80;94558.03;4897127;29;7113;-35
2023/12/28 05:07:05;;;;;;;;;;;;;;;26.12;36.59;94558.25;4897575;29;9230;-35
2023/12/28 05:09:48;;;;;;;;;;;;;;;26.06;36.98;94551.25;4855623;29;7227;-35
2023/12/28 05:12:26;;;;;;;;;;;;;;;26.07;36.55;94556.28;4854485;29;7253;-35
2023/12/28 05:15:01;;;;;;;;;;;;;;;26.04;36.78;94565.56;4845433;29;7723;-35
2023/12/28 05:17:39;;;;;;;;;;;;;;;26.04;36.62;94562.81;4846924;29;7142;-35
2023/12/28 05:20:06;;;;;;;;;;;;;;;26.05;36.88;94572.59;4850896;29;9005;-52
2023/12/28 05:22:34;;;;;;;;;;;;;;;26.02;36.83;94565.31;4860385;29;7385;-52
2023/12/28 05:25:10;;;;;;;;;;;;;;;26.01;37.02;94568.59;4861813;29;8249;-49
2023/12/28 05:27:54;;;;;;;;;;;;;;;26.03;36.25;94575.06;4898346;29;8855;-47
2023/12/28 05:30:22;;;;;;;;;;;;;;;26.02;36.76;94567.31;4936153;29;7493;-50
2023/12/28 05:32:48;;;;;;;;;;;;;;;26.01;37.05;94571.34;4919423;29;7133;-52
2023/12/28 05:35:14;;;;;;;;;;;;;;;26.02;36.48;94567.31;4936081;28;6862;-49
2023/12/28 05:37:54;;;;;;;;;;;;;;;25.97;36.30;94562.56;4938372;28;7165;-51
2023/12/28 05:40:20;;;;;;;;;;;;;;;25.98;37.07;94562.09;4978938;28;9100;-52
2023/12/28 05:42:59;;;;;;;;;;;;;;;25.99;36.94;94563.56;4965027;28;7267;-52
2023/12/28 05:45:42;;;;;;;;;;;;;;;26.00;36.94;94561.56;4975615;28;7736;-53
2023/12/28 05:48:21;;;;;;;;;;;;;;;26.00;36.91;94559.56;5021207;28;7168;-47
2023/12/28 05:51:02;;;;;;;;;;;;;;;25.97;36.88;94560.56;5014254;28;7274;-48
2023/12/28 05:53:29;;;;;;;;;;;;;;;26.00;37.34;94558.81;5023231;28;7861;-50
2023/12/28 05:56:08;;;;;;;;;;;;;;;25.97;36.29;94555.06;5016781;28;7090;-50
2023/12/28 05:59:06;;;;;;;;;;;;;;;25.96;37.01;94553.59;5009197;28;9122;-51
2023/12/28 06:02:13;;;;;;;;;;;;;;;25.98;37.03;94551.06;4970672;28;8134;-49
2023/12/28 06:04:54;;;;;;;;;;;;;;;25.99;36.13;94551.81;4972384;28;7266;-49
2023/12/28 06:07:22;;;;;;;;;;;;;;;25.97;36.83;94546.78;4954769;28;6996;-49
2023/12/28 06:09:50;;;;;;;;;;;;;;;25.99;36.46;94547.03;4947254;28;7011;-46
2023/12/28 06:12:30;;;;;;;;;;;;;;;26.00;36.63;94556.81;4973956;28;9267;-47
2023/12/28 06:15:50;;;;;;;;;;;;;;;26.00;36.72;94565.09;4954732;28;8931;-44
2023/12/28 06:18:16;;;;;;;;;;;;;;;26.02;36.64;94557.06;4889014;29;9150;-44
2023/12/28 06:20:56;;;;;;;;;;;;;;;26.01;37.02;94555.53;4912553;29;7230;-44
2023/12/28 06:23:56;;;;;;;;;;;;;;;26.04;36.40;94549.03;4916297;29;9137;-45
2023/12/28 06:26:39;;;;;;;;;;;;;;;26.05;36.65;94552.53;4826237;29;7273;-45
2023/12/28 06:29:22;;;;;;;;;;;;;;;26.05;36.95;94550.53;4841417;29;8884;-44
2023/12/28 06:31:57;;;;;;;;;;;;;;;26.05;36.84;94544.25;4831193;29;7408;-38
2023/12/28 06:34:25;;;;;;;;;;;;;;;26.04;36.73;94546.25;4840505;29;9067;-39
2023/12/28 06:36:51;;;;;;;;;;;;;;;26.07;37.07;94530.72;4849080;29;7267;-38
2023/12/28 06:39:50;;;;;;;;;;;;;;;26.07;36.26;94536.22;4875862;29;7423;-38
2023/12/28 06:42:16;;;;;;;;;;;;;;;26.07;37.17;94541.75;4820482;29;9279;-50
2023/12/28 06:44:42;;;;;;;;;;;;;;;26.05;36.83;94538.75;4818224;29;7253;-45
2023/12/28 06:47:08;;;;;;;;;;;;;;;26.09;36.48;94540.00;4825085;29;7893;-45
2023/12/28 06:49:34;;;;;;;;;;;;;;;26.10;36.97;94535.22;4823651;29;8772;-38
2023/12/28 06:52:00;;;;;;;;;;;;;;;26.08;36.85;94532.97;4833855;29;7262;-36
2023/12/28 06:54:27;;;;;;;;;;;;;;;26.10;37.24;94541.50;4844904;29;7044;-36
2023/12/28 06:56:53;;;;;;;;;;;;;;;26.11;36.99;94543.00;4857594;29;9157;-36
2023/12/28 06:59:19;;;;;;;;;;;;;;;26.10;36.75;94544.25;4854969;29;8814;-36
2023/12/28 07:01:45;;;;;;;;;;;;;;;26.09;36.34;94540.00;4885751;29;7281;-36
2023/12/28 07:04:12;;;;;;;;;;;;;;;26.08;36.45;94549.53;4924167;29;9182;-36
2023/12/28 07:06:38;;;;;;;;;;;;;;;26.06;37.63;94546.50;4930673;29;9136;-36
2023/12/28 07:09:04;;;;;;;;;;;;;;;26.08;36.52;94555.03;4909236;29;9013;-36
2023/12/28 07:11:41;;;;;;;;;;;;;;;26.04;36.68;94553.78;4927898;29;7235;-36
2023/12/28 07:14:43;;;;;;;;;;;;;;;26.05;36.93;94550.53;4916458;29;7664;-36
2023/12/28 07:17:17;;;;;;;;;;;;;;;26.05;37.08;94549.78;4869456;29;9167;-36
2023/12/28 07:19:54;;;;;;;;;;;;;;;26.06;37.14;94560.28;4925501;29;8766;-35
2023/12/28 07:22:21;;;;;;;;;;;;;;;26.05;36.43;94561.56;4925508;29;9091;-36
2023/12/28 07:24:57;;;;;;;;;;;;;;;26.04;36.94;94560.03;4914650;29;8311;-36
2023/12/28 07:27:32;;;;;;;;;;;;;;;26.05;37.16;94555.28;4920994;29;8829;-36
2023/12/28 07:30:10;;;;;;;;;;;;;;;26.04;37.20;94565.56;4920730;29;7019;-36
2023/12/28 07:32:36;;;;;;;;;;;;;;;26.00;36.98;94564.31;4919042;29;9187;-35
2023/12/28 07:35:09;;;;;;;;;;;;;;;26.03;37.43;94575.06;4910690;29;9534;-36
2023/12/28 07:37:59;;;;;;;;;;;;;;;26.04;36.79;94584.84;4902987;29;7062;-36
2023/12/28 07:40:38;;;;;;;;;;;;;;;26.02;36.97;94584.63;4933811;29;9558;-36
2023/12/28 07:43:14;;;;;;;;;;;;;;;26.00;37.24;94589.88;4906618;29;7272;-36
2023/12/28 07:45:41;;;;;;;;;;;;;;;26.02;36.69;94590.13;4928735;29;7245;-36
2023/12/28 07:48:11;;;;;;;;;;;;;;;25.99;36.35;94591.13;4905190;29;7268;-36
2023/12/28 07:51:09;;;;;;;;;;;;;;;26.04;37.64;94600.63;4926781;29;9113;-36
2023/12/28 07:53:48;;;;;;;;;;;;;;;26.05;37.02;94594.63;4925127;28;7073;-36
2023/12/28 07:56:24;;;;;;;;;;;;;;;26.09;36.65;94589.63;4944036;28;7015;-35
2023/12/28 07:59:00;;;;;;;;;;;;;;;26.11;37.27;94591.88;4932951;28;8769;-36
2023/12/28 08:01:32;;;;;;;;;;;;;;;26.11;37.33;94592.63;4955184;28;9127;-46
2023/12/28 08:04:51;;;;;;;;;;;;;;;26.14;36.81;94590.84;4949162;28;7681;-46
2023/12/28 08:07:27;;;;;;;;;;;;;;;26.10;37.23;94591.09;4859158;29;8145;-50
2023/12/28 08:10:08;;;;;;;;;;;;;;;26.09;37.52;94595.13;4840576;29;6994;-50
2023/12/28 08:12:36;;;;;;;;;;;;;;;26.10;37.09;94595.88;4848785;29;9101;-50
2023/12/28 08:15:18;;;;;;;;;;;;;;;26.07;37.52;94586.59;4850844;29;8057;-51
2023/12/28 08:17:46;;;;;;;;;;;;;;;26.06;37.58;94579.56;4859164;29;9091;-48
2023/12/28 08:20:13;;;;;;;;;;;;;;;26.07;37.08;94580.34;4840370;29;9182;-51
2023/12/28 08:22:39;;;;;;;;;;;;;;;26.08;37.65;94588.13;4844729;29;7617;-48
2023/12/28 08:25:05;;;;;;;;;;;;;;;26.05;38.20;94589.13;4840380;29;7230;-45
2023/12/28 08:27:32;;;;;;;;;;;;;;;26.08;37.53;94585.34;4852723;29;7502;-51
2023/12/28 08:30:10;;;;;;;;;;;;;;;26.08;37.65;94592.84;4871739;29;7312;-45
2023/12/28 08:32:38;;;;;;;;;;;;;;;26.06;37.84;94593.34;4907984;29;7410;-52
2023/12/28 08:35:15;;;;;;;;;;;;;;;26.07;37.05;94594.88;4910890;29;9033;-48
2023/12/28 08:37:41;;;;;;;;;;;;;;;26.06;37.46;94592.59;4893192;29;9335;-49
2023/12/28 08:40:09;;;;;;;;;;;;;;;26.07;37.47;94585.84;4892431;29;7269;-48
2023/12/28 08:42:45;;;;;;;;;;;;;;;26.05;37.83;94582.84;4954108;28;9111;-52
2023/12/28 08:45:15;;;;;;;;;;;;;;;26.07;37.57;94585.84;5024196;28;8186;-47
2023/12/28 08:47:43;;;;;;;;;;;;;;;26.08;37.17;94588.13;5027348;28;7072;-48
2023/12/28 08:50:10;;;;;;;;;;;;;;;26.11;36.90;94587.09;5012903;28;7238;-47
2023/12/28 08:52:43;;;;;;;;;;;;;;;26.14;37.75;94585.34;5008445;28;7005;-50
2023/12/28 08:55:11;;;;;;;;;;;;;;;26.12;36.47;94591.34;5008508;28;7441;-48
2023/12/28 08:57:40;;;;;;;;;;;;;;;26.11;36.42;94581.59;5036888;28;9064;-47
2023/12/28 09:00:23;;;;;;;;;;;;;;;26.11;36.19;94580.84;5031675;28;8527;-46
2023/12/28 09:02:50;;;;;;;;;;;;;;;26.09;35.70;94586.88;5017859;28;7139;-46
2023/12/28 09:05:16;;;;;;;;;;;;;;;26.08;35.44;94588.13;5033649;28;9069;-49
2023/12/28 09:08:13;;;;;;;;;;;;;;;26.07;35.80;94588.59;5036140;28;7219;-50
2023/12/28 09:10:58;;;;;;;;;;;;;;;26.06;35.27;94596.13;4959182;28;7415;-37
2023/12/28 09:13:54;;;;;;;;;;;;;;;26.06;36.19;94593.34;4955140;28;7257;-37
2023/12/28 09:16:30;;;;;;;;;;;;;;;26.05;35.83;94593.88;4898629;29;7005;-37
2023/12/28 09:18:58;;;;;;;;;;;;;;;26.01;36.04;94596.16;4896643;29;9148;-37
2023/12/28 09:21:38;;;;;;;;;;;;;;;26.02;35.50;94592.88;4894540;29;9113;-36
2023/12/28 09:24:24;;;;;;;;;;;;;;;26.00;35.60;94589.13;4891302;29;7071;-36
2023/12/28 09:26:50;;;;;;;;;;;;;;;26.04;36.37;94597.88;4890391;29;8737;-37
2023/12/28 09:29:36;;;;;;;;;;;;;;;26.04;36.54;94604.16;4890941;29;9142;-37
2023/12/28 09:32:16;;;;;;;;;;;;;;;26.04;35.78;94609.66;4893332;29;8890;-36
2023/12/28 09:34:42;;;;;;;;;;;;;;;26.03;35.92;94608.16;4879760;29;7257;-37
2023/12/28 09:37:37;;;;;;;;;;;;;;;26.06;35.69;94617.41;4888043;29;9548;-37
2023/12/28 09:40:20;;;;;;;;;;;;;;;26.04;36.37;94614.41;4839104;29;9079;-37
2023/12/28 09:43:25;;;;;;;;;;;;;;;26.00;36.47;94608.44;4839896;29;8782;-37
2023/12/28 09:46:07;;;;;;;;;;;;;;;25.98;36.35;94597.91;4843113;29;7009;-37
2023/12/28 09:48:34;;;;;;;;;;;;;;;25.97;36.53;94601.91;4892763;29;9492;-37
2023/12/28 09:51:10;;;;;;;;;;;;;;;25.90;36.13;94604.47;4880204;29;9184;-36
2023/12/28 09:53:47;;;;;;;;;;;;;;;25.95;36.78;94612.69;4911699;29;7093;-37
2023/12/28 09:56:26;;;;;;;;;;;;;;;25.97;36.66;94604.69;4935546;28;7371;-37
2023/12/28 09:58:53;;;;;;;;;;;;;;;25.95;37.12;94607.19;4936751;28;9152;-37
2023/12/28 10:01:31;;;;;;;;;;;;;;;25.94;36.46;94605.72;4924934;29;8757;-37
2023/12/28 10:03:58;;;;;;;;;;;;;;;25.96;37.32;94614.22;4928249;29;8837;-37
2023/12/28 10:06:35;;;;;;;;;;;;;;;25.95;37.52;94617.47;4918655;29;7364;-36
2023/12/28 10:09:13;;;;;;;;;;;;;;;25.92;37.23;94613.72;4920250;29;7121;-37
2023/12/28 10:11:41;;;;;;;;;;;;;;;25.87;37.03;94611.75;4918067;29;7196;-37
2023/12/28 10:14:14;;;;;;;;;;;;;;;25.85;37.45;94619.78;4931858;28;9159;-37
2023/12/28 10:16:47;;;;;;;;;;;;;;;25.89;37.00;94609.22;4975454;28;9187;-37
2023/12/28 10:19:22;;;;;;;;;;;;;;;25.88;36.08;94609.75;5002629;28;9104;-37
2023/12/28 10:22:00;;;;;;;;;;;;;;;25.85;36.12;94610.75;5025191;28;9447;-56
2023/12/28 10:25:05;;;;;;;;;;;;;;;25.79;36.94;94612.78;5025722;28;7936;-56
2023/12/28 10:27:44;;;;;;;;;;;;;;;25.76;36.55;94622.81;4950022;28;7201;-58
2023/12/28 10:30:11;;;;;;;;;;;;;;;25.76;36.70;94616.53;4935985;28;8738;-56
2023/12/28 10:32:40;;;;;;;;;;;;;;;25.74;37.14;94614.28;4941090;28;9019;-56
2023/12/28 10:35:08;;;;;;;;;;;;;;;25.72;36.91;94603.03;4939721;28;7088;-57
2023/12/28 10:37:35;;;;;;;;;;;;;;;25.71;37.66;94587.75;4934010;28;8294;-57
2023/12/28 10:40:06;;;;;;;;;;;;;;;25.72;37.50;94589.25;4948873;28;7260;-57
2023/12/28 10:42:42;;;;;;;;;;;;;;;25.72;37.21;94594.78;4947713;28;7271;-57
2023/12/28 10:45:13;;;;;;;;;;;;;;;25.74;36.80;94581.25;4931288;28;7235;-57
2023/12/28 10:47:47;;;;;;;;;;;;;;;25.75;37.84;94585.47;4932308;28;7267;-57
2023/12/28 10:50:16;;;;;;;;;;;;;;;25.75;37.12;94590.97;4947740;28;7173;-57
2023/12/28 10:52:48;;;;;;;;;;;;;;;25.81;37.08;94590.97;4934241;28;7246;-56
2023/12/28 10:55:37;;;;;;;;;;;;;;;25.77;37.49;94574.72;4947644;28;7236;-56
2023/12/28 10:58:19;;;;;;;;;;;;;;;25.83;37.27;94577.44;4927817;28;8631;-57
2023/12/28 11:00:54;;;;;;;;;;;;;;;25.82;37.59;94573.19;4941878;28;9120;-57
2023/12/28 11:03:34;;;;;;;;;;;;;;;25.80;37.01;94576.44;4978608;28;7308;-57
2023/12/28 11:06:07;;;;;;;;;;;;;;;25.82;37.67;94570.41;5000228;28;9152;-57
2023/12/28 11:08:35;;;;;;;;;;;;;;;25.86;36.67;94571.66;5020794;28;7191;-57
2023/12/28 11:11:06;;;;;;;;;;;;;;;25.88;37.25;94568.41;5023668;28;6860;-57
2023/12/28 11:13:32;;;;;;;;;;;;;;;25.90;36.60;94566.63;5010828;28;7739;-57
2023/12/28 11:15:59;;;;;;;;;;;;;;;25.92;37.24;94557.88;5010497;28;7219;-58
2023/12/28 11:18:27;;;;;;;;;;;;;;;25.92;36.54;94560.63;5019782;28;7353;-56
2023/12/28 11:20:59;;;;;;;;;;;;;;;25.93;36.60;94549.06;5003528;28;9494;-57
2023/12/28 11:23:55;;;;;;;;;;;;;;;25.90;37.31;94541.81;5022957;28;9051;-57
2023/12/28 11:26:30;;;;;;;;;;;;;;;25.93;37.29;94543.56;4936813;28;7538;-57
2023/12/28 11:29:04;;;;;;;;;;;;;;;25.90;37.20;94550.09;4947658;28;7267;-56
2023/12/28 11:31:39;;;;;;;;;;;;;;;25.89;36.78;94548.59;4934996;29;7810;-37
2023/12/28 11:34:17;;;;;;;;;;;;;;;25.93;36.84;94546.31;4937161;29;7993;-37
2023/12/28 11:36:55;;;;;;;;;;;;;;;25.92;37.24;94542.09;4931244;29;7104;-37
2023/12/28 11:39:48;;;;;;;;;;;;;;;25.87;37.77;94548.38;4943813;29;9270;-37
2023/12/28 11:42:29;;;;;;;;;;;;;;;25.91;37.61;94551.59;4946996;29;7273;-37
2023/12/28 11:45:10;;;;;;;;;;;;;;;25.91;37.91;94551.59;4929946;29;7271;-37
2023/12/28 11:48:11;;;;;;;;;;;;;;;25.92;38.06;94561.38;4936420;29;7334;-37
2023/12/28 11:50:39;;;;;;;;;;;;;;;25.93;37.42;94559.34;4936458;29;6982;-37
2023/12/28 11:53:21;;;;;;;;;;;;;;;25.95;37.71;94565.09;4937200;29;7890;-37
2023/12/28 11:56:03;;;;;;;;;;;;;;;25.92;37.32;94561.38;4950122;29;7066;-37
2023/12/28 11:58:37;;;;;;;;;;;;;;;25.94;37.48;94566.38;4933093;29;9004;-37
2023/12/28 12:01:15;;;;;;;;;;;;;;;25.97;37.54;94565.34;4940231;29;9185;-37
2023/12/28 12:03:41;;;;;;;;;;;;;;;25.98;37.31;94551.06;5003645;28;6992;-37
2023/12/28 12:06:11;;;;;;;;;;;;;;;26.00;37.99;94551.31;5002386;28;7243;-36
2023/12/28 12:08:37;;;;;;;;;;;;;;;25.95;38.10;94554.81;5021739;28;7104;-37
2023/12/28 12:11:18;;;;;;;;;;;;;;;25.94;37.62;94553.34;5020296;28;9207;-37
2023/12/28 12:13:55;;;;;;;;;;;;;;;25.93;37.66;94540.81;5021071;28;7258;-37
2023/12/28 12:16:21;;;;;;;;;;;;;;;25.89;37.96;94545.09;5024656;28;7316;-37
2023/12/28 12:18:58;;;;;;;;;;;;;;;25.91;37.89;94539.81;5027745;28;7550;-37
2023/12/28 12:21:27;;;;;;;;;;;;;;;25.91;38.10;94537.81;5020878;28;9070;-37
2023/12/28 12:23:55;;;;;;;;;;;;;;;25.96;37.30;94536.28;5012785;28;7833;-37
2023/12/28 12:26:31;;;;;;;;;;;;;;;25.97;37.29;94541.28;4998334;28;7195;-37
2023/12/28 12:28:57;;;;;;;;;;;;;;;25.98;37.75;94540.03;5004884;28;7063;-37
2023/12/28 12:31:44;;;;;;;;;;;;;;;26.02;37.34;94543.28;5027600;28;7194;-36
2023/12/28 12:34:11;;;;;;;;;;;;;;;26.02;37.49;94531.50;5006414;28;7052;-37
2023/12/28 12:37:13;;;;;;;;;;;;;;;26.01;36.96;94533.50;5010442;28;9109;-37
2023/12/28 12:40:12;;;;;;;;;;;;;;;26.06;37.57;94524.44;5027054;28;7070;-46
2023/12/28 12:43:29;;;;;;;;;;;;;;;26.08;37.40;94526.69;4936287;28;6993;-57
2023/12/28 12:45:55;;;;;;;;;;;;;;;26.04;37.95;94528.97;4952239;28;7170;-57
2023/12/28 12:48:30;;;;;;;;;;;;;;;26.02;37.01;94528.72;4937438;28;7276;-57
2023/12/28 12:51:08;;;;;;;;;;;;;;;26.05;37.74;94528.47;4929709;28;9176;-56
2023/12/28 12:54:11;;;;;;;;;;;;;;;26.05;37.17;94536.75;4930671;28;8989;-56
2023/12/28 12:56:50;;;;;;;;;;;;;;;26.05;37.00;94534.00;4882636;29;9167;-56
2023/12/28 12:59:43;;;;;;;;;;;;;;;26.05;37.09;94534.00;4898072;29;7919;-56
2023/12/28 13:02:18;;;;;;;;;;;;;;;26.04;38.06;94529.72;4898003;29;9431;-57
2023/12/28 13:04:59;;;;;;;;;;;;;;;26.08;37.55;94530.22;4882621;29;7231;-56
2023/12/28 13:07:44;;;;;;;;;;;;;;;26.08;37.64;94532.97;4905348;29;9523;-56
2023/12/28 13:10:28;;;;;;;;;;;;;;;26.07;37.46;94528.72;4888175;29;8308;-56
2023/12/28 13:13:06;;;;;;;;;;;;;;;26.06;37.72;94534.72;4880306;29;7051;-57
2023/12/28 13:15:49;;;;;;;;;;;;;;;26.09;36.69;94528.97;4885619;29;9358;-57
2023/12/28 13:18:34;;;;;;;;;;;;;;;26.08;36.94;94534.94;4909049;28;9459;-57
2023/12/28 13:21:26;;;;;;;;;;;;;;;26.09;37.21;94539.25;4975388;28;8748;-57
2023/12/28 13:23:53;;;;;;;;;;;;;;;26.06;36.87;94534.72;4974749;28;7843;-57
2023/12/28 13:26:36;;;;;;;;;;;;;;;26.09;36.88;94539.25;4974571;28;7348;-57
2023/12/28 13:29:03;;;;;;;;;;;;;;;26.08;36.82;94545.97;4955901;28;9468;-57
2023/12/28 13:31:37;;;;;;;;;;;;;;;26.06;37.11;94543.00;4972728;28;9104;-56
2023/12/28 13:34:06;;;;;;;;;;;;;;;26.04;37.45;94549.03;5018909;28;7329;-56
2023/12/28 13:36:35;;;;;;;;;;;;;;;26.05;36.77;94552.53;5027840;28;7089;-56
2023/12/28 13:39:11;;;;;;;;;;;;;;;26.02;36.85;94550.78;5033003;28;7337;-56
2023/12/28 13:41:52;;;;;;;;;;;;;;;26.02;37.23;94559.81;5018981;28;9188;-56
2023/12/28 13:44:49;;;;;;;;;;;;;;;26.01;37.02;94555.53;5022862;28;7398;-56
2023/12/28 13:47:32;;;;;;;;;;;;;;;26.01;36.94;94546.53;4969788;28;9424;-56
2023/12/28 13:49:59;;;;;;;;;;;;;;;26.01;36.84;94550.03;4940102;28;8830;-39